sensor_id;sensor_type;location;lat;lon;timestamp;temperature;humidity
71297;SHT31;59082;50.658;4.608;2022-08-30T00:01:05;16.67;78.63
71297;SHT31;59082;50.658;4.608;2022-08-30T00:03:38;16.72;78.58
71297;SHT31;59082;50.658;4.608;2022-08-30T00:06:06;16.76;78.66
71297;SHT31;59082;50.658;4.608;2022-08-30T00:08:33;16.80;78.70
71297;SHT31;59082;50.658;4.608;2022-08-30T00:10:59;16.87;78.66
71297;SHT31;59082;50.658;4.608;2022-08-30T00:13:26;16.88;78.67
71297;SHT31;59082;50.658;4.608;2022-08-30T00:15:52;16.87;78.89
71297;SHT31;59082;50.658;4.608;2022-08-30T00:18:18;16.90;78.96
71297;SHT31;59082;50.658;4.608;2022-08-30T00:20:45;16.91;79.12
71297;SHT31;59082;50.658;4.608;2022-08-30T00:23:11;16.90;79.12
71297;SHT31;59082;50.658;4.608;2022-08-30T00:25:38;16.88;79.33
71297;SHT31;59082;50.658;4.608;2022-08-30T00:28:04;16.86;79.58
71297;SHT31;59082;50.658;4.608;2022-08-30T00:30:30;16.87;79.69
71297;SHT31;59082;50.658;4.608;2022-08-30T00:32:56;16.87;79.76
71297;SHT31;59082;50.658;4.608;2022-08-30T00:35:22;16.84;79.96
71297;SHT31;59082;50.658;4.608;2022-08-30T00:37:48;16.83;80.03
71297;SHT31;59082;50.658;4.608;2022-08-30T00:40:16;16.77;80.32
71297;SHT31;59082;50.658;4.608;2022-08-30T00:42:43;16.70;80.57
71297;SHT31;59082;50.658;4.608;2022-08-30T00:45:16;16.63;80.89
71297;SHT31;59082;50.658;4.608;2022-08-30T00:47:43;16.53;81.19
71297;SHT31;59082;50.658;4.608;2022-08-30T00:50:10;16.48;81.57
71297;SHT31;59082;50.658;4.608;2022-08-30T00:52:38;16.38;81.90
71297;SHT31;59082;50.658;4.608;2022-08-30T00:55:06;16.35;82.18
71297;SHT31;59082;50.658;4.608;2022-08-30T00:57:32;16.26;82.53
71297;SHT31;59082;50.658;4.608;2022-08-30T01:00:01;16.21;82.88
71297;SHT31;59082;50.658;4.608;2022-08-30T01:02:28;16.11;83.24
71297;SHT31;59082;50.658;4.608;2022-08-30T01:04:58;16.07;83.55
71297;SHT31;59082;50.658;4.608;2022-08-30T01:07:24;16.02;83.90
71297;SHT31;59082;50.658;4.608;2022-08-30T01:09:50;15.98;84.21
71297;SHT31;59082;50.658;4.608;2022-08-30T01:12:15;15.96;84.50
71297;SHT31;59082;50.658;4.608;2022-08-30T01:14:41;15.96;84.68
71297;SHT31;59082;50.658;4.608;2022-08-30T01:17:07;16.00;84.65
71297;SHT31;59082;50.658;4.608;2022-08-30T01:20:00;16.05;84.68
71297;SHT31;59082;50.658;4.608;2022-08-30T01:24:59;16.05;84.87
71297;SHT31;59082;50.658;4.608;2022-08-30T01:27:26;16.07;84.96
71297;SHT31;59082;50.658;4.608;2022-08-30T01:29:52;16.05;85.07
71297;SHT31;59082;50.658;4.608;2022-08-30T01:32:21;15.97;85.40
71297;SHT31;59082;50.658;4.608;2022-08-30T01:34:48;15.89;85.60
71297;SHT31;59082;50.658;4.608;2022-08-30T01:37:19;15.81;85.86
71297;SHT31;59082;50.658;4.608;2022-08-30T01:39:46;15.73;86.31
71297;SHT31;59082;50.658;4.608;2022-08-30T01:42:15;15.64;86.58
71297;SHT31;59082;50.658;4.608;2022-08-30T01:44:45;15.57;87.08
71297;SHT31;59082;50.658;4.608;2022-08-30T01:47:11;15.50;87.37
71297;SHT31;59082;50.658;4.608;2022-08-30T01:49:38;15.47;87.52
71297;SHT31;59082;50.658;4.608;2022-08-30T01:52:04;15.47;87.54
71297;SHT31;59082;50.658;4.608;2022-08-30T01:54:31;15.45;87.78
71297;SHT31;59082;50.658;4.608;2022-08-30T01:56:57;15.42;87.87
71297;SHT31;59082;50.658;4.608;2022-08-30T01:59:23;15.40;88.00
71297;SHT31;59082;50.658;4.608;2022-08-30T02:01:48;15.40;88.06
71297;SHT31;59082;50.658;4.608;2022-08-30T02:04:14;15.35;88.26
71297;SHT31;59082;50.658;4.608;2022-08-30T02:06:39;15.35;88.46
71297;SHT31;59082;50.658;4.608;2022-08-30T02:09:06;15.36;88.73
71297;SHT31;59082;50.658;4.608;2022-08-30T02:11:32;15.28;88.98
71297;SHT31;59082;50.658;4.608;2022-08-30T02:13:58;15.22;89.24
71297;SHT31;59082;50.658;4.608;2022-08-30T02:16:24;15.22;89.42
71297;SHT31;59082;50.658;4.608;2022-08-30T02:18:51;15.18;89.64
71297;SHT31;59082;50.658;4.608;2022-08-30T02:21:17;15.19;89.85
71297;SHT31;59082;50.658;4.608;2022-08-30T02:23:43;15.18;89.83
71297;SHT31;59082;50.658;4.608;2022-08-30T02:26:09;15.15;90.07
71297;SHT31;59082;50.658;4.608;2022-08-30T02:28:35;15.14;90.33
71297;SHT31;59082;50.658;4.608;2022-08-30T02:31:01;15.15;90.43
71297;SHT31;59082;50.658;4.608;2022-08-30T02:33:26;15.11;90.67
71297;SHT31;59082;50.658;4.608;2022-08-30T02:35:52;15.08;90.78
71297;SHT31;59082;50.658;4.608;2022-08-30T02:38:18;15.07;90.86
71297;SHT31;59082;50.658;4.608;2022-08-30T02:40:43;15.04;90.95
71297;SHT31;59082;50.658;4.608;2022-08-30T02:43:10;15.01;91.17
71297;SHT31;59082;50.658;4.608;2022-08-30T02:45:36;14.98;91.37
71297;SHT31;59082;50.658;4.608;2022-08-30T02:48:01;14.99;91.42
71297;SHT31;59082;50.658;4.608;2022-08-30T02:50:27;14.99;91.53
71297;SHT31;59082;50.658;4.608;2022-08-30T02:52:53;14.99;91.57
71297;SHT31;59082;50.658;4.608;2022-08-30T02:55:21;15.08;91.49
71297;SHT31;59082;50.658;4.608;2022-08-30T02:57:47;15.14;91.36
71297;SHT31;59082;50.658;4.608;2022-08-30T03:00:16;15.18;91.28
71297;SHT31;59082;50.658;4.608;2022-08-30T03:02:42;15.21;91.18
71297;SHT31;59082;50.658;4.608;2022-08-30T03:05:09;15.28;91.02
71297;SHT31;59082;50.658;4.608;2022-08-30T03:07:37;15.35;90.93
71297;SHT31;59082;50.658;4.608;2022-08-30T03:10:04;15.36;90.86
71297;SHT31;59082;50.658;4.608;2022-08-30T03:12:29;15.40;90.83
71297;SHT31;59082;50.658;4.608;2022-08-30T03:14:56;15.39;90.90
71297;SHT31;59082;50.658;4.608;2022-08-30T03:17:22;15.35;91.02
71297;SHT31;59082;50.658;4.608;2022-08-30T03:19:48;15.36;91.04
71297;SHT31;59082;50.658;4.608;2022-08-30T03:22:13;15.33;91.15
71297;SHT31;59082;50.658;4.608;2022-08-30T03:24:39;15.29;91.29
71297;SHT31;59082;50.658;4.608;2022-08-30T03:27:04;15.28;91.35
71297;SHT31;59082;50.658;4.608;2022-08-30T03:29:30;15.32;91.41
71297;SHT31;59082;50.658;4.608;2022-08-30T03:31:56;15.31;91.32
71297;SHT31;59082;50.658;4.608;2022-08-30T03:34:23;15.32;91.45
71297;SHT31;59082;50.658;4.608;2022-08-30T03:36:50;15.32;91.39
71297;SHT31;59082;50.658;4.608;2022-08-30T03:39:17;15.32;91.52
71297;SHT31;59082;50.658;4.608;2022-08-30T03:41:42;15.29;91.61
71297;SHT31;59082;50.658;4.608;2022-08-30T03:44:08;15.29;91.70
71297;SHT31;59082;50.658;4.608;2022-08-30T03:46:33;15.24;91.91
71297;SHT31;59082;50.658;4.608;2022-08-30T03:48:59;15.19;92.10
71297;SHT31;59082;50.658;4.608;2022-08-30T03:51:24;15.12;92.35
71297;SHT31;59082;50.658;4.608;2022-08-30T03:53:51;15.09;92.42
71297;SHT31;59082;50.658;4.608;2022-08-30T03:56:17;15.05;92.61
71297;SHT31;59082;50.658;4.608;2022-08-30T03:58:43;15.01;92.79
71297;SHT31;59082;50.658;4.608;2022-08-30T04:01:09;14.97;92.92
71297;SHT31;59082;50.658;4.608;2022-08-30T04:03:34;14.94;93.02
71297;SHT31;59082;50.658;4.608;2022-08-30T04:06:00;14.91;93.18
71297;SHT31;59082;50.658;4.608;2022-08-30T04:08:26;14.91;93.31
71297;SHT31;59082;50.658;4.608;2022-08-30T04:10:52;14.88;93.49
71297;SHT31;59082;50.658;4.608;2022-08-30T04:13:19;14.83;93.58
71297;SHT31;59082;50.658;4.608;2022-08-30T04:15:45;14.80;93.79
71297;SHT31;59082;50.658;4.608;2022-08-30T04:18:11;14.74;93.85
71297;SHT31;59082;50.658;4.608;2022-08-30T04:20:37;14.74;93.96
71297;SHT31;59082;50.658;4.608;2022-08-30T04:23:04;14.70;94.15
71297;SHT31;59082;50.658;4.608;2022-08-30T04:25:33;14.73;94.22
71297;SHT31;59082;50.658;4.608;2022-08-30T04:27:59;14.73;94.17
71297;SHT31;59082;50.658;4.608;2022-08-30T04:30:25;14.78;94.10
71297;SHT31;59082;50.658;4.608;2022-08-30T04:32:50;14.80;94.12
71297;SHT31;59082;50.658;4.608;2022-08-30T04:35:16;14.80;94.11
71297;SHT31;59082;50.658;4.608;2022-08-30T04:37:41;14.78;94.09
71297;SHT31;59082;50.658;4.608;2022-08-30T04:40:08;14.78;94.19
71297;SHT31;59082;50.658;4.608;2022-08-30T04:42:34;14.74;94.29
71297;SHT31;59082;50.658;4.608;2022-08-30T04:45:05;14.71;94.37
71297;SHT31;59082;50.658;4.608;2022-08-30T04:47:31;14.73;94.48
71297;SHT31;59082;50.658;4.608;2022-08-30T04:49:57;14.70;94.52
71297;SHT31;59082;50.658;4.608;2022-08-30T04:52:22;14.66;94.63
71297;SHT31;59082;50.658;4.608;2022-08-30T04:54:53;14.70;94.67
71297;SHT31;59082;50.658;4.608;2022-08-30T04:57:20;14.64;94.81
71297;SHT31;59082;50.658;4.608;2022-08-30T04:59:45;14.67;94.89
71297;SHT31;59082;50.658;4.608;2022-08-30T05:02:11;14.64;94.97
71297;SHT31;59082;50.658;4.608;2022-08-30T05:04:36;14.61;94.96
71297;SHT31;59082;50.658;4.608;2022-08-30T05:07:22;14.64;95.00
71297;SHT31;59082;50.658;4.608;2022-08-30T05:09:47;14.63;95.14
71297;SHT31;59082;50.658;4.608;2022-08-30T05:12:13;14.66;95.04
71297;SHT31;59082;50.658;4.608;2022-08-30T05:14:38;14.68;95.07
71297;SHT31;59082;50.658;4.608;2022-08-30T05:17:04;14.71;94.99
71297;SHT31;59082;50.658;4.608;2022-08-30T05:19:30;14.73;94.99
71297;SHT31;59082;50.658;4.608;2022-08-30T05:21:58;14.73;95.00
71297;SHT31;59082;50.658;4.608;2022-08-30T05:24:23;14.78;94.99
71297;SHT31;59082;50.658;4.608;2022-08-30T05:26:49;14.76;95.06
71297;SHT31;59082;50.658;4.608;2022-08-30T05:29:14;14.77;95.14
71297;SHT31;59082;50.658;4.608;2022-08-30T05:31:42;14.83;95.07
71297;SHT31;59082;50.658;4.608;2022-08-30T05:34:08;14.88;94.99
71297;SHT31;59082;50.658;4.608;2022-08-30T05:36:36;14.94;94.77
71297;SHT31;59082;50.658;4.608;2022-08-30T05:39:03;15.08;94.49
71297;SHT31;59082;50.658;4.608;2022-08-30T05:41:29;15.21;94.12
71297;SHT31;59082;50.658;4.608;2022-08-30T05:43:56;15.33;93.67
71297;SHT31;59082;50.658;4.608;2022-08-30T05:46:22;15.42;93.45
71297;SHT31;59082;50.658;4.608;2022-08-30T05:48:48;15.49;93.30
71297;SHT31;59082;50.658;4.608;2022-08-30T05:51:20;15.52;93.18
71297;SHT31;59082;50.658;4.608;2022-08-30T05:53:47;15.52;93.29
71297;SHT31;59082;50.658;4.608;2022-08-30T05:56:16;15.62;93.15
71297;SHT31;59082;50.658;4.608;2022-08-30T05:58:43;15.66;92.88
71297;SHT31;59082;50.658;4.608;2022-08-30T06:01:26;15.80;92.69
71297;SHT31;59082;50.658;4.608;2022-08-30T06:03:53;15.90;92.35
71297;SHT31;59082;50.658;4.608;2022-08-30T06:06:20;16.00;92.10
71297;SHT31;59082;50.658;4.608;2022-08-30T06:08:46;16.05;92.05
71297;SHT31;59082;50.658;4.608;2022-08-30T06:11:15;16.12;91.85
71297;SHT31;59082;50.658;4.608;2022-08-30T06:13:41;16.17;91.62
71297;SHT31;59082;50.658;4.608;2022-08-30T06:16:10;16.12;91.63
71297;SHT31;59082;50.658;4.608;2022-08-30T06:18:42;16.11;91.75
71297;SHT31;59082;50.658;4.608;2022-08-30T06:21:07;16.18;91.65
71297;SHT31;59082;50.658;4.608;2022-08-30T06:23:39;16.22;91.61
71297;SHT31;59082;50.658;4.608;2022-08-30T06:26:06;16.25;91.51
71297;SHT31;59082;50.658;4.608;2022-08-30T06:28:32;16.33;91.39
71297;SHT31;59082;50.658;4.608;2022-08-30T06:30:59;16.31;91.31
71297;SHT31;59082;50.658;4.608;2022-08-30T06:33:24;16.41;91.12
71297;SHT31;59082;50.658;4.608;2022-08-30T06:35:50;16.51;90.83
71297;SHT31;59082;50.658;4.608;2022-08-30T06:38:16;16.59;90.67
71297;SHT31;59082;50.658;4.608;2022-08-30T06:40:41;16.72;90.63
71297;SHT31;59082;50.658;4.608;2022-08-30T06:43:07;16.83;90.24
71297;SHT31;59082;50.658;4.608;2022-08-30T06:45:33;16.94;89.75
71297;SHT31;59082;50.658;4.608;2022-08-30T06:47:59;16.97;89.54
71297;SHT31;59082;50.658;4.608;2022-08-30T06:50:25;17.07;89.15
71297;SHT31;59082;50.658;4.608;2022-08-30T06:52:50;17.23;88.66
71297;SHT31;59082;50.658;4.608;2022-08-30T06:55:17;17.36;88.27
71297;SHT31;59082;50.658;4.608;2022-08-30T06:57:43;17.53;87.86
71297;SHT31;59082;50.658;4.608;2022-08-30T07:00:11;17.78;87.35
71297;SHT31;59082;50.658;4.608;2022-08-30T07:02:37;17.97;86.87
71297;SHT31;59082;50.658;4.608;2022-08-30T07:05:04;18.24;86.34
71297;SHT31;59082;50.658;4.608;2022-08-30T07:07:30;18.38;85.71
71297;SHT31;59082;50.658;4.608;2022-08-30T07:09:55;18.59;84.99
71297;SHT31;59082;50.658;4.608;2022-08-30T07:12:21;18.81;84.51
71297;SHT31;59082;50.658;4.608;2022-08-30T07:14:47;18.95;84.02
71297;SHT31;59082;50.658;4.608;2022-08-30T07:17:13;19.09;83.75
71297;SHT31;59082;50.658;4.608;2022-08-30T07:19:57;19.34;82.96
71297;SHT31;59082;50.658;4.608;2022-08-30T07:22:22;19.43;82.72
71297;SHT31;59082;50.658;4.608;2022-08-30T07:24:48;19.67;82.38
71297;SHT31;59082;50.658;4.608;2022-08-30T07:27:14;19.86;81.91
71297;SHT31;59082;50.658;4.608;2022-08-30T07:29:40;20.27;81.09
71297;SHT31;59082;50.658;4.608;2022-08-30T07:32:06;20.57;80.19
71297;SHT31;59082;50.658;4.608;2022-08-30T07:34:32;20.65;80.19
71297;SHT31;59082;50.658;4.608;2022-08-30T07:36:57;20.84;79.23
71297;SHT31;59082;50.658;4.608;2022-08-30T07:39:23;20.85;78.49
71297;SHT31;59082;50.658;4.608;2022-08-30T07:41:48;20.75;78.40
71297;SHT31;59082;50.658;4.608;2022-08-30T07:44:15;21.11;78.06
71297;SHT31;59082;50.658;4.608;2022-08-30T07:46:41;21.54;77.46
71297;SHT31;59082;50.658;4.608;2022-08-30T07:49:07;21.71;76.62
71297;SHT31;59082;50.658;4.608;2022-08-30T07:51:33;21.86;75.68
71297;SHT31;59082;50.658;4.608;2022-08-30T07:53:59;22.12;75.38
71297;SHT31;59082;50.658;4.608;2022-08-30T07:56:25;22.12;75.21
71297;SHT31;59082;50.658;4.608;2022-08-30T07:58:51;22.53;75.13
71297;SHT31;59082;50.658;4.608;2022-08-30T08:01:20;22.67;73.83
71297;SHT31;59082;50.658;4.608;2022-08-30T08:03:46;22.87;73.60
71297;SHT31;59082;50.658;4.608;2022-08-30T08:06:14;22.94;72.52
71297;SHT31;59082;50.658;4.608;2022-08-30T08:08:40;23.10;71.88
71297;SHT31;59082;50.658;4.608;2022-08-30T08:11:14;23.35;71.28
71297;SHT31;59082;50.658;4.608;2022-08-30T08:13:41;23.73;71.17
71297;SHT31;59082;50.658;4.608;2022-08-30T08:16:08;23.85;69.75
71297;SHT31;59082;50.658;4.608;2022-08-30T08:18:33;23.73;69.43
71297;SHT31;59082;50.658;4.608;2022-08-30T08:21:00;23.99;70.30
71297;SHT31;59082;50.658;4.608;2022-08-30T08:23:26;23.99;69.15
71297;SHT31;59082;50.658;4.608;2022-08-30T08:25:52;24.02;69.21
71297;SHT31;59082;50.658;4.608;2022-08-30T08:28:18;24.35;68.26
71297;SHT31;59082;50.658;4.608;2022-08-30T08:30:45;24.50;67.50
71297;SHT31;59082;50.658;4.608;2022-08-30T08:33:10;24.76;67.93
71297;SHT31;59082;50.658;4.608;2022-08-30T08:35:37;25.20;66.74
71297;SHT31;59082;50.658;4.608;2022-08-30T08:38:03;25.58;66.04
71297;SHT31;59082;50.658;4.608;2022-08-30T08:40:41;25.53;65.31
71297;SHT31;59082;50.658;4.608;2022-08-30T08:43:18;25.94;65.07
71297;SHT31;59082;50.658;4.608;2022-08-30T08:46:44;25.99;64.55
71297;SHT31;59082;50.658;4.608;2022-08-30T08:48:47;25.71;64.51
71297;SHT31;59082;50.658;4.608;2022-08-30T08:51:16;25.67;64.71
71297;SHT31;59082;50.658;4.608;2022-08-30T08:56:44;25.71;64.67
71297;SHT31;59082;50.658;4.608;2022-08-30T08:59:10;25.37;64.26
71297;SHT31;59082;50.658;4.608;2022-08-30T09:01:37;24.82;65.58
71297;SHT31;59082;50.658;4.608;2022-08-30T09:04:25;24.79;65.31
71297;SHT31;59082;50.658;4.608;2022-08-30T09:06:56;25.51;64.89
71297;SHT31;59082;50.658;4.608;2022-08-30T09:09:28;25.80;64.63
71297;SHT31;59082;50.658;4.608;2022-08-30T09:11:54;25.80;63.84
71297;SHT31;59082;50.658;4.608;2022-08-30T09:14:26;25.84;63.63
71297;SHT31;59082;50.658;4.608;2022-08-30T09:17:06;26.28;63.92
71297;SHT31;59082;50.658;4.608;2022-08-30T09:24:58;27.90;63.42
71297;SHT31;59082;50.658;4.608;2022-08-30T09:32:38;28.99;58.72
71297;SHT31;59082;50.658;4.608;2022-08-30T09:36:08;29.02;58.16
71297;SHT31;59082;50.658;4.608;2022-08-30T09:40:51;29.79;57.77
71297;SHT31;59082;50.658;4.608;2022-08-30T09:43:32;29.83;57.49
71297;SHT31;59082;50.658;4.608;2022-08-30T09:48:42;30.88;55.95
71297;SHT31;59082;50.658;4.608;2022-08-30T09:59:52;31.76;53.67
71297;SHT31;59082;50.658;4.608;2022-08-30T10:02:56;31.46;53.14
71297;SHT31;59082;50.658;4.608;2022-08-30T10:06:09;32.33;51.69
71297;SHT31;59082;50.658;4.608;2022-08-30T10:09:14;32.84;52.78
71297;SHT31;59082;50.658;4.608;2022-08-30T10:22:52;32.52;52.09
71297;SHT31;59082;50.658;4.608;2022-08-30T10:25:27;32.81;51.73
71297;SHT31;59082;50.658;4.608;2022-08-30T10:28:04;33.75;49.90
71297;SHT31;59082;50.658;4.608;2022-08-30T10:30:33;33.61;49.81
71297;SHT31;59082;50.658;4.608;2022-08-30T10:33:25;32.79;50.83
71297;SHT31;59082;50.658;4.608;2022-08-30T10:35:56;32.83;50.72
71297;SHT31;59082;50.658;4.608;2022-08-30T10:38:32;33.48;50.47
71297;SHT31;59082;50.658;4.608;2022-08-30T10:43:57;34.02;50.07
71297;SHT31;59082;50.658;4.608;2022-08-30T10:46:45;35.05;49.56
71297;SHT31;59082;50.658;4.608;2022-08-30T10:49:17;34.88;49.10
71297;SHT31;59082;50.658;4.608;2022-08-30T10:52:08;35.06;49.57
71297;SHT31;59082;50.658;4.608;2022-08-30T10:54:48;34.44;48.75
71297;SHT31;59082;50.658;4.608;2022-08-30T10:57:16;35.55;47.66
71297;SHT31;59082;50.658;4.608;2022-08-30T10:59:48;36.14;47.52
71297;SHT31;59082;50.658;4.608;2022-08-30T11:02:27;36.84;46.45
71297;SHT31;59082;50.658;4.608;2022-08-30T11:08:57;36.35;45.98
71297;SHT31;59082;50.658;4.608;2022-08-30T11:14:00;36.52;46.16
71297;SHT31;59082;50.658;4.608;2022-08-30T11:16:53;36.77;45.97
71297;SHT31;59082;50.658;4.608;2022-08-30T11:19:38;37.73;44.99
71297;SHT31;59082;50.658;4.608;2022-08-30T11:22:14;38.05;43.97
71297;SHT31;59082;50.658;4.608;2022-08-30T11:25:13;39.18;43.09
71297;SHT31;59082;50.658;4.608;2022-08-30T11:27:48;39.84;42.30
71297;SHT31;59082;50.658;4.608;2022-08-30T11:57:35;45.82;36.59
71297;SHT31;59082;50.658;4.608;2022-08-30T12:05:48;46.16;36.09
71297;SHT31;59082;50.658;4.608;2022-08-30T12:18:48;46.44;36.57
71297;SHT31;59082;50.658;4.608;2022-08-30T12:24:05;49.57;33.50
71297;SHT31;59082;50.658;4.608;2022-08-30T12:26:40;47.88;34.55
71297;SHT31;59082;50.658;4.608;2022-08-30T12:31:48;49.55;33.73
71297;SHT31;59082;50.658;4.608;2022-08-30T12:34:27;43.50;36.45
71297;SHT31;59082;50.658;4.608;2022-08-30T12:37:30;42.59;37.35
71297;SHT31;59082;50.658;4.608;2022-08-30T12:40:08;43.29;38.03
71297;SHT31;59082;50.658;4.608;2022-08-30T12:42:39;46.13;35.85
71297;SHT31;59082;50.658;4.608;2022-08-30T12:45:14;44.01;37.52
71297;SHT31;59082;50.658;4.608;2022-08-30T12:47:50;46.36;35.72
71297;SHT31;59082;50.658;4.608;2022-08-30T12:50:23;47.23;35.02
71297;SHT31;59082;50.658;4.608;2022-08-30T12:53:01;41.31;38.79
71297;SHT31;59082;50.658;4.608;2022-08-30T12:55:30;45.62;36.06
71297;SHT31;59082;50.658;4.608;2022-08-30T12:58:06;46.00;35.14
71297;SHT31;59082;50.658;4.608;2022-08-30T13:00:34;42.89;38.87
71297;SHT31;59082;50.658;4.608;2022-08-30T13:05:52;42.37;38.35
71297;SHT31;59082;50.658;4.608;2022-08-30T13:08:34;39.87;40.19
71297;SHT31;59082;50.658;4.608;2022-08-30T13:16:11;44.18;37.04
71297;SHT31;59082;50.658;4.608;2022-08-30T13:18:37;42.41;38.54
71297;SHT31;59082;50.658;4.608;2022-08-30T13:21:10;42.04;38.34
71297;SHT31;59082;50.658;4.608;2022-08-30T13:23:36;44.15;37.27
71297;SHT31;59082;50.658;4.608;2022-08-30T13:26:01;44.86;36.25
71297;SHT31;59082;50.658;4.608;2022-08-30T13:28:29;43.49;37.28
71297;SHT31;59082;50.658;4.608;2022-08-30T13:30:54;44.39;36.73
71297;SHT31;59082;50.658;4.608;2022-08-30T13:33:20;48.01;35.34
71297;SHT31;59082;50.658;4.608;2022-08-30T13:35:45;47.19;34.63
71297;SHT31;59082;50.658;4.608;2022-08-30T13:38:11;44.66;36.16
71297;SHT31;59082;50.658;4.608;2022-08-30T13:40:36;46.95;34.95
71297;SHT31;59082;50.658;4.608;2022-08-30T13:43:02;45.39;36.15
71297;SHT31;59082;50.658;4.608;2022-08-30T13:45:28;46.84;35.55
71297;SHT31;59082;50.658;4.608;2022-08-30T13:47:53;44.29;36.71
71297;SHT31;59082;50.658;4.608;2022-08-30T13:50:19;41.13;38.67
71297;SHT31;59082;50.658;4.608;2022-08-30T13:52:45;36.19;43.67
71297;SHT31;59082;50.658;4.608;2022-08-30T13:55:11;35.60;44.91
71297;SHT31;59082;50.658;4.608;2022-08-30T13:57:37;37.66;42.29
71297;SHT31;59082;50.658;4.608;2022-08-30T14:00:07;42.95;38.13
71297;SHT31;59082;50.658;4.608;2022-08-30T14:02:35;45.13;35.92
71297;SHT31;59082;50.658;4.608;2022-08-30T14:05:00;44.64;36.48
71297;SHT31;59082;50.658;4.608;2022-08-30T14:07:26;46.38;35.77
71297;SHT31;59082;50.658;4.608;2022-08-30T14:09:52;46.31;35.01
71297;SHT31;59082;50.658;4.608;2022-08-30T14:12:17;45.55;36.00
71297;SHT31;59082;50.658;4.608;2022-08-30T14:14:43;45.22;36.20
71297;SHT31;59082;50.658;4.608;2022-08-30T14:17:09;41.51;38.90
71297;SHT31;59082;50.658;4.608;2022-08-30T14:19:34;40.11;39.93
71297;SHT31;59082;50.658;4.608;2022-08-30T14:22:00;44.12;37.13
71297;SHT31;59082;50.658;4.608;2022-08-30T14:24:26;44.21;36.61
71297;SHT31;59082;50.658;4.608;2022-08-30T14:26:51;45.75;36.09
71297;SHT31;59082;50.658;4.608;2022-08-30T14:29:21;48.14;34.63
71297;SHT31;59082;50.658;4.608;2022-08-30T14:31:47;49.89;33.09
71297;SHT31;59082;50.658;4.608;2022-08-30T14:34:13;51.90;32.08
71297;SHT31;59082;50.658;4.608;2022-08-30T14:36:42;49.53;33.29
71297;SHT31;59082;50.658;4.608;2022-08-30T14:39:10;48.22;33.65
71297;SHT31;59082;50.658;4.608;2022-08-30T14:41:43;50.73;32.99
71297;SHT31;59082;50.658;4.608;2022-08-30T14:44:14;48.39;34.18
71297;SHT31;59082;50.658;4.608;2022-08-30T14:46:41;42.72;37.47
71297;SHT31;59082;50.658;4.608;2022-08-30T14:49:06;44.09;37.03
71297;SHT31;59082;50.658;4.608;2022-08-30T14:51:32;43.02;37.37
71297;SHT31;59082;50.658;4.608;2022-08-30T14:53:57;40.76;40.39
71297;SHT31;59082;50.658;4.608;2022-08-30T14:56:23;36.53;43.96
71297;SHT31;59082;50.658;4.608;2022-08-30T14:58:51;34.84;45.39
71297;SHT31;59082;50.658;4.608;2022-08-30T15:01:17;33.85;46.75
71297;SHT31;59082;50.658;4.608;2022-08-30T15:03:45;33.07;47.74
71297;SHT31;59082;50.658;4.608;2022-08-30T15:06:11;32.94;48.02
71297;SHT31;59082;50.658;4.608;2022-08-30T15:08:37;32.59;48.78
71297;SHT31;59082;50.658;4.608;2022-08-30T15:11:11;32.60;48.77
71297;SHT31;59082;50.658;4.608;2022-08-30T15:13:38;31.78;49.71
71297;SHT31;59082;50.658;4.608;2022-08-30T15:16:12;31.56;50.53
71297;SHT31;59082;50.658;4.608;2022-08-30T15:18:38;31.71;50.30
71297;SHT31;59082;50.658;4.608;2022-08-30T15:21:04;32.19;49.64
71297;SHT31;59082;50.658;4.608;2022-08-30T15:23:29;31.92;49.85
71297;SHT31;59082;50.658;4.608;2022-08-30T15:25:55;31.27;50.33
71297;SHT31;59082;50.658;4.608;2022-08-30T15:28:21;31.60;49.84
71297;SHT31;59082;50.658;4.608;2022-08-30T15:30:46;32.55;48.97
71297;SHT31;59082;50.658;4.608;2022-08-30T15:33:12;34.39;46.58
71297;SHT31;59082;50.658;4.608;2022-08-30T15:35:37;32.90;48.37
71297;SHT31;59082;50.658;4.608;2022-08-30T15:38:03;31.54;50.18
71297;SHT31;59082;50.658;4.608;2022-08-30T15:40:31;31.41;50.43
71297;SHT31;59082;50.658;4.608;2022-08-30T15:42:56;31.11;51.14
71297;SHT31;59082;50.658;4.608;2022-08-30T15:45:22;34.33;47.15
71297;SHT31;59082;50.658;4.608;2022-08-30T15:47:47;35.34;46.06
71297;SHT31;59082;50.658;4.608;2022-08-30T15:50:13;33.68;47.34
71297;SHT31;59082;50.658;4.608;2022-08-30T15:52:38;32.76;48.14
71297;SHT31;59082;50.658;4.608;2022-08-30T15:55:05;31.87;49.80
71297;SHT31;59082;50.658;4.608;2022-08-30T15:57:31;31.78;50.27
71297;SHT31;59082;50.658;4.608;2022-08-30T15:59:56;31.94;50.10
71297;SHT31;59082;50.658;4.608;2022-08-30T16:02:22;31.18;50.88
71297;SHT31;59082;50.658;4.608;2022-08-30T16:04:47;35.71;45.79
71297;SHT31;59082;50.658;4.608;2022-08-30T16:07:13;32.64;48.94
71297;SHT31;59082;50.658;4.608;2022-08-30T16:09:39;32.70;49.17
71297;SHT31;59082;50.658;4.608;2022-08-30T16:12:05;33.56;48.41
71297;SHT31;59082;50.658;4.608;2022-08-30T16:14:32;36.18;44.83
71297;SHT31;59082;50.658;4.608;2022-08-30T16:16:58;34.74;46.13
71297;SHT31;59082;50.658;4.608;2022-08-30T16:19:24;33.97;47.22
71297;SHT31;59082;50.658;4.608;2022-08-30T16:21:50;33.34;47.73
71297;SHT31;59082;50.658;4.608;2022-08-30T16:24:15;35.37;45.82
71297;SHT31;59082;50.658;4.608;2022-08-30T16:26:43;35.03;45.89
71297;SHT31;59082;50.658;4.608;2022-08-30T16:29:10;35.77;45.35
71297;SHT31;59082;50.658;4.608;2022-08-30T16:31:36;35.99;45.62
71297;SHT31;59082;50.658;4.608;2022-08-30T16:34:03;37.85;42.74
71297;SHT31;59082;50.658;4.608;2022-08-30T16:36:29;36.62;43.82
71297;SHT31;59082;50.658;4.608;2022-08-30T16:38:55;36.09;44.62
71297;SHT31;59082;50.658;4.608;2022-08-30T16:41:21;36.80;44.19
71297;SHT31;59082;50.658;4.608;2022-08-30T16:43:48;34.09;46.61
71297;SHT31;59082;50.658;4.608;2022-08-30T16:46:16;31.81;49.62
71297;SHT31;59082;50.658;4.608;2022-08-30T16:48:43;30.60;51.54
71297;SHT31;59082;50.658;4.608;2022-08-30T16:51:12;30.34;52.59
71297;SHT31;59082;50.658;4.608;2022-08-30T16:53:38;29.86;52.97
71297;SHT31;59082;50.658;4.608;2022-08-30T16:56:06;29.47;53.56
71297;SHT31;59082;50.658;4.608;2022-08-30T16:58:32;28.89;54.17
71297;SHT31;59082;50.658;4.608;2022-08-30T17:00:58;28.28;55.40
71297;SHT31;59082;50.658;4.608;2022-08-30T17:03:23;27.86;55.93
71297;SHT31;59082;50.658;4.608;2022-08-30T17:05:49;27.64;56.61
71297;SHT31;59082;50.658;4.608;2022-08-30T17:08:14;27.34;57.54
71297;SHT31;59082;50.658;4.608;2022-08-30T17:10:40;27.24;57.58
71297;SHT31;59082;50.658;4.608;2022-08-30T17:13:06;26.57;58.58
71297;SHT31;59082;50.658;4.608;2022-08-30T17:15:32;26.19;59.34
71297;SHT31;59082;50.658;4.608;2022-08-30T17:17:57;26.18;59.73
71297;SHT31;59082;50.658;4.608;2022-08-30T17:20:39;25.96;60.02
71297;SHT31;59082;50.658;4.608;2022-08-30T17:23:05;25.88;60.23
71297;SHT31;59082;50.658;4.608;2022-08-30T17:25:31;25.91;60.22